sensor_id;sensor_type;location;lat;lon;timestamp;P1;durP1;ratioP1;P2;durP2;ratioP2
50858;SDS011;36826;47.514;19.056;2022-09-30T00:02:09;2.88;;;2.10;;
50858;SDS011;36826;47.514;19.056;2022-09-30T00:04:36;3.40;;;2.10;;
50858;SDS011;36826;47.514;19.056;2022-09-30T00:07:01;3.45;;;2.22;;
50858;SDS011;36826;47.514;19.056;2022-09-30T00:09:27;3.00;;;1.95;;
50858;SDS011;36826;47.514;19.056;2022-09-30T00:11:52;3.15;;;2.10;;
50858;SDS011;36826;47.514;19.056;2022-09-30T00:14:19;2.85;;;2.25;;
50858;SDS011;36826;47.514;19.056;2022-09-30T00:16:46;2.28;;;1.92;;
50858;SDS011;36826;47.514;19.056;2022-09-30T00:19:12;2.83;;;1.90;;
50858;SDS011;36826;47.514;19.056;2022-09-30T00:21:38;3.15;;;2.10;;
50858;SDS011;36826;47.514;19.056;2022-09-30T00:24:04;2.88;;;1.80;;
50858;SDS011;36826;47.514;19.056;2022-09-30T00:26:31;3.33;;;2.17;;
50858;SDS011;36826;47.514;19.056;2022-09-30T00:28:58;2.47;;;2.00;;
50858;SDS011;36826;47.514;19.056;2022-09-30T00:31:26;2.72;;;2.00;;
50858;SDS011;36826;47.514;19.056;2022-09-30T00:33:56;2.83;;;2.13;;
50858;SDS011;36826;47.514;19.056;2022-09-30T00:36:40;4.32;;;1.95;;
50858;SDS011;36826;47.514;19.056;2022-09-30T00:39:08;2.83;;;2.03;;
50858;SDS011;36826;47.514;19.056;2022-09-30T00:41:35;2.85;;;2.05;;
50858;SDS011;36826;47.514;19.056;2022-09-30T00:44:01;3.55;;;1.92;;
50858;SDS011;36826;47.514;19.056;2022-09-30T00:47:10;2.70;;;2.08;;
50858;SDS011;36826;47.514;19.056;2022-09-30T00:49:50;2.60;;;1.90;;
50858;SDS011;36826;47.514;19.056;2022-09-30T00:52:17;2.58;;;2.08;;
50858;SDS011;36826;47.514;19.056;2022-09-30T00:54:43;2.47;;;1.73;;
50858;SDS011;36826;47.514;19.056;2022-09-30T00:57:09;2.47;;;1.70;;
50858;SDS011;36826;47.514;19.056;2022-09-30T00:59:39;2.60;;;2.08;;
50858;SDS011;36826;47.514;19.056;2022-09-30T01:02:08;2.90;;;1.85;;
50858;SDS011;36826;47.514;19.056;2022-09-30T01:04:34;2.70;;;1.83;;
50858;SDS011;36826;47.514;19.056;2022-09-30T01:07:02;2.08;;;1.67;;
50858;SDS011;36826;47.514;19.056;2022-09-30T01:09:30;2.53;;;1.90;;
50858;SDS011;36826;47.514;19.056;2022-09-30T01:11:57;3.10;;;1.95;;
50858;SDS011;36826;47.514;19.056;2022-09-30T01:14:24;4.03;;;2.10;;
50858;SDS011;36826;47.514;19.056;2022-09-30T01:16:54;3.05;;;2.17;;
50858;SDS011;36826;47.514;19.056;2022-09-30T01:37:02;2.58;;;1.90;;
50858;SDS011;36826;47.514;19.056;2022-09-30T01:39:36;2.55;;;1.77;;
50858;SDS011;36826;47.514;19.056;2022-09-30T01:44:47;2.85;;;1.75;;
50858;SDS011;36826;47.514;19.056;2022-09-30T01:47:26;3.05;;;1.70;;
50858;SDS011;36826;47.514;19.056;2022-09-30T01:57:41;3.45;;;2.10;;
50858;SDS011;36826;47.514;19.056;2022-09-30T02:00:32;3.72;;;1.88;;
50858;SDS011;36826;47.514;19.056;2022-09-30T02:03:24;3.13;;;2.03;;
50858;SDS011;36826;47.514;19.056;2022-09-30T02:06:05;2.25;;;1.77;;
50858;SDS011;36826;47.514;19.056;2022-09-30T02:08:37;2.47;;;1.92;;
50858;SDS011;36826;47.514;19.056;2022-09-30T02:11:12;2.15;;;1.70;;
50858;SDS011;36826;47.514;19.056;2022-09-30T02:16:39;2.58;;;1.80;;
50858;SDS011;36826;47.514;19.056;2022-09-30T02:21:42;2.10;;;1.40;;
50858;SDS011;36826;47.514;19.056;2022-09-30T02:24:13;2.80;;;1.80;;
50858;SDS011;36826;47.514;19.056;2022-09-30T02:26:41;1.85;;;1.42;;
50858;SDS011;36826;47.514;19.056;2022-09-30T02:29:17;2.63;;;1.88;;
50858;SDS011;36826;47.514;19.056;2022-09-30T02:31:52;3.03;;;2.05;;
50858;SDS011;36826;47.514;19.056;2022-09-30T02:34:24;2.90;;;1.77;;
50858;SDS011;36826;47.514;19.056;2022-09-30T02:37:15;2.65;;;1.83;;
50858;SDS011;36826;47.514;19.056;2022-09-30T02:39:51;3.38;;;1.80;;
50858;SDS011;36826;47.514;19.056;2022-09-30T02:44:52;3.75;;;1.65;;
50858;SDS011;36826;47.514;19.056;2022-09-30T02:50:03;3.85;;;1.70;;
50858;SDS011;36826;47.514;19.056;2022-09-30T02:55:58;3.30;;;1.40;;
50858;SDS011;36826;47.514;19.056;2022-09-30T02:58:33;4.18;;;1.75;;
50858;SDS011;36826;47.514;19.056;2022-09-30T03:01:02;4.60;;;1.70;;
50858;SDS011;36826;47.514;19.056;2022-09-30T03:06:11;4.50;;;1.70;;
50858;SDS011;36826;47.514;19.056;2022-09-30T03:08:37;2.97;;;1.65;;
50858;SDS011;36826;47.514;19.056;2022-09-30T03:11:02;3.85;;;1.90;;
50858;SDS011;36826;47.514;19.056;2022-09-30T03:16:18;4.35;;;1.45;;
50858;SDS011;36826;47.514;19.056;2022-09-30T03:19:22;3.53;;;1.67;;
50858;SDS011;36826;47.514;19.056;2022-09-30T03:27:59;6.10;;;1.80;;
50858;SDS011;36826;47.514;19.056;2022-09-30T03:30:46;6.13;;;1.85;;
50858;SDS011;36826;47.514;19.056;2022-09-30T03:33:21;7.07;;;1.85;;
50858;SDS011;36826;47.514;19.056;2022-09-30T03:36:04;7.03;;;1.80;;
50858;SDS011;36826;47.514;19.056;2022-09-30T03:41:30;4.65;;;2.05;;
50858;SDS011;36826;47.514;19.056;2022-09-30T03:44:21;5.93;;;1.53;;
50858;SDS011;36826;47.514;19.056;2022-09-30T03:46:48;3.03;;;1.60;;
50858;SDS011;36826;47.514;19.056;2022-09-30T03:49:19;4.20;;;1.40;;
50858;SDS011;36826;47.514;19.056;2022-09-30T03:51:48;6.05;;;2.05;;
50858;SDS011;36826;47.514;19.056;2022-09-30T03:54:13;2.78;;;1.60;;
50858;SDS011;36826;47.514;19.056;2022-09-30T03:56:39;3.65;;;1.58;;
50858;SDS011;36826;47.514;19.056;2022-09-30T03:59:12;4.22;;;1.70;;
50858;SDS011;36826;47.514;19.056;2022-09-30T04:01:47;3.92;;;1.52;;
50858;SDS011;36826;47.514;19.056;2022-09-30T04:04:13;4.28;;;1.30;;
50858;SDS011;36826;47.514;19.056;2022-09-30T04:06:38;4.40;;;1.85;;
50858;SDS011;36826;47.514;19.056;2022-09-30T04:09:04;2.42;;;1.55;;
50858;SDS011;36826;47.514;19.056;2022-09-30T04:11:29;3.80;;;1.58;;
50858;SDS011;36826;47.514;19.056;2022-09-30T04:13:55;4.65;;;1.80;;
50858;SDS011;36826;47.514;19.056;2022-09-30T04:16:20;3.38;;;1.70;;
50858;SDS011;36826;47.514;19.056;2022-09-30T04:18:46;3.25;;;1.60;;
50858;SDS011;36826;47.514;19.056;2022-09-30T04:21:12;3.83;;;1.58;;
50858;SDS011;36826;47.514;19.056;2022-09-30T04:23:39;4.07;;;1.38;;
50858;SDS011;36826;47.514;19.056;2022-09-30T04:26:06;4.00;;;2.00;;
50858;SDS011;36826;47.514;19.056;2022-09-30T04:28:34;3.60;;;1.30;;
50858;SDS011;36826;47.514;19.056;2022-09-30T04:31:00;3.60;;;1.38;;
50858;SDS011;36826;47.514;19.056;2022-09-30T04:33:26;2.20;;;1.33;;
50858;SDS011;36826;47.514;19.056;2022-09-30T04:35:53;3.05;;;1.15;;
50858;SDS011;36826;47.514;19.056;2022-09-30T04:38:19;3.58;;;1.70;;
50858;SDS011;36826;47.514;19.056;2022-09-30T04:40:44;2.53;;;1.10;;
50858;SDS011;36826;47.514;19.056;2022-09-30T04:43:10;3.50;;;1.83;;
50858;SDS011;36826;47.514;19.056;2022-09-30T04:45:35;2.70;;;1.85;;
50858;SDS011;36826;47.514;19.056;2022-09-30T04:48:03;4.53;;;1.83;;
50858;SDS011;36826;47.514;19.056;2022-09-30T04:50:28;2.85;;;1.70;;
50858;SDS011;36826;47.514;19.056;2022-09-30T04:52:55;2.20;;;1.58;;
50858;SDS011;36826;47.514;19.056;2022-09-30T04:55:21;3.40;;;1.50;;
50858;SDS011;36826;47.514;19.056;2022-09-30T04:57:47;2.97;;;1.42;;
50858;SDS011;36826;47.514;19.056;2022-09-30T05:00:13;2.78;;;1.60;;
50858;SDS011;36826;47.514;19.056;2022-09-30T05:02:41;2.10;;;1.20;;
50858;SDS011;36826;47.514;19.056;2022-09-30T05:05:08;4.15;;;1.50;;
50858;SDS011;36826;47.514;19.056;2022-09-30T05:07:34;4.45;;;1.45;;
50858;SDS011;36826;47.514;19.056;2022-09-30T05:09:59;2.47;;;1.20;;
50858;SDS011;36826;47.514;19.056;2022-09-30T05:12:25;2.13;;;1.10;;
50858;SDS011;36826;47.514;19.056;2022-09-30T05:14:50;3.10;;;1.20;;
50858;SDS011;36826;47.514;19.056;2022-09-30T05:17:16;3.17;;;1.30;;
50858;SDS011;36826;47.514;19.056;2022-09-30T05:19:41;1.80;;;1.20;;
50858;SDS011;36826;47.514;19.056;2022-09-30T05:22:06;2.63;;;1.58;;
50858;SDS011;36826;47.514;19.056;2022-09-30T05:24:32;1.88;;;1.42;;
50858;SDS011;36826;47.514;19.056;2022-09-30T05:26:57;2.22;;;1.30;;
50858;SDS011;36826;47.514;19.056;2022-09-30T05:29:23;2.65;;;1.40;;
50858;SDS011;36826;47.514;19.056;2022-09-30T05:31:48;5.00;;;1.58;;
50858;SDS011;36826;47.514;19.056;2022-09-30T05:34:14;3.53;;;1.50;;
50858;SDS011;36826;47.514;19.056;2022-09-30T05:36:41;3.17;;;1.35;;
50858;SDS011;36826;47.514;19.056;2022-09-30T05:39:08;4.20;;;1.23;;
50858;SDS011;36826;47.514;19.056;2022-09-30T05:41:35;6.05;;;1.27;;
50858;SDS011;36826;47.514;19.056;2022-09-30T05:44:01;2.78;;;1.30;;
50858;SDS011;36826;47.514;19.056;2022-09-30T05:46:26;4.65;;;1.30;;
50858;SDS011;36826;47.514;19.056;2022-09-30T05:48:52;7.72;;;1.27;;
50858;SDS011;36826;47.514;19.056;2022-09-30T05:51:19;6.18;;;1.42;;
50858;SDS011;36826;47.514;19.056;2022-09-30T05:53:44;6.13;;;1.73;;
50858;SDS011;36826;47.514;19.056;2022-09-30T05:56:10;6.18;;;1.40;;
50858;SDS011;36826;47.514;19.056;2022-09-30T05:58:36;8.57;;;1.75;;
50858;SDS011;36826;47.514;19.056;2022-09-30T06:01:06;5.32;;;1.65;;
50858;SDS011;36826;47.514;19.056;2022-09-30T06:03:34;15.82;;;1.50;;
50858;SDS011;36826;47.514;19.056;2022-09-30T06:06:00;3.70;;;1.50;;
50858;SDS011;36826;47.514;19.056;2022-09-30T06:08:25;6.55;;;1.27;;
50858;SDS011;36826;47.514;19.056;2022-09-30T06:10:51;6.05;;;2.20;;
50858;SDS011;36826;47.514;19.056;2022-09-30T06:13:16;8.35;;;1.90;;
50858;SDS011;36826;47.514;19.056;2022-09-30T06:15:42;8.57;;;2.10;;
50858;SDS011;36826;47.514;19.056;2022-09-30T06:18:08;7.63;;;2.20;;
50858;SDS011;36826;47.514;19.056;2022-09-30T06:20:35;8.20;;;2.10;;
50858;SDS011;36826;47.514;19.056;2022-09-30T06:23:00;4.15;;;1.60;;
50858;SDS011;36826;47.514;19.056;2022-09-30T06:25:27;6.05;;;1.85;;
50858;SDS011;36826;47.514;19.056;2022-09-30T06:27:53;4.93;;;1.80;;
50858;SDS011;36826;47.514;19.056;2022-09-30T06:30:19;6.85;;;1.70;;
50858;SDS011;36826;47.514;19.056;2022-09-30T06:32:44;4.93;;;1.90;;
50858;SDS011;36826;47.514;19.056;2022-09-30T06:35:10;5.65;;;1.83;;
50858;SDS011;36826;47.514;19.056;2022-09-30T06:37:35;5.85;;;1.65;;
50858;SDS011;36826;47.514;19.056;2022-09-30T06:40:02;4.05;;;1.42;;
50858;SDS011;36826;47.514;19.056;2022-09-30T06:42:28;4.03;;;1.58;;
50858;SDS011;36826;47.514;19.056;2022-09-30T06:44:54;5.97;;;1.95;;
50858;SDS011;36826;47.514;19.056;2022-09-30T06:47:19;6.03;;;2.08;;
50858;SDS011;36826;47.514;19.056;2022-09-30T06:49:45;4.30;;;1.80;;
50858;SDS011;36826;47.514;19.056;2022-09-30T06:52:10;3.00;;;1.45;;
50858;SDS011;36826;47.514;19.056;2022-09-30T06:54:37;3.17;;;1.60;;
50858;SDS011;36826;47.514;19.056;2022-09-30T06:57:03;4.93;;;1.67;;
50858;SDS011;36826;47.514;19.056;2022-09-30T06:59:29;3.38;;;1.65;;
50858;SDS011;36826;47.514;19.056;2022-09-30T07:01:54;7.55;;;1.50;;
50858;SDS011;36826;47.514;19.056;2022-09-30T07:04:20;4.40;;;1.50;;
50858;SDS011;36826;47.514;19.056;2022-09-30T07:06:45;6.55;;;1.42;;
50858;SDS011;36826;47.514;19.056;2022-09-30T07:09:11;3.85;;;1.70;;
50858;SDS011;36826;47.514;19.056;2022-09-30T07:11:37;2.58;;;1.58;;
50858;SDS011;36826;47.514;19.056;2022-09-30T07:14:06;7.75;;;1.30;;
50858;SDS011;36826;47.514;19.056;2022-09-30T07:16:32;4.57;;;1.40;;
50858;SDS011;36826;47.514;19.056;2022-09-30T07:19:01;3.65;;;1.67;;
50858;SDS011;36826;47.514;19.056;2022-09-30T07:21:28;2.95;;;1.20;;
50858;SDS011;36826;47.514;19.056;2022-09-30T07:23:55;4.63;;;1.50;;
50858;SDS011;36826;47.514;19.056;2022-09-30T07:26:23;3.67;;;1.50;;
50858;SDS011;36826;47.514;19.056;2022-09-30T07:28:49;3.72;;;1.20;;
50858;SDS011;36826;47.514;19.056;2022-09-30T07:31:16;3.72;;;1.20;;
50858;SDS011;36826;47.514;19.056;2022-09-30T07:33:49;3.53;;;1.17;;
50858;SDS011;36826;47.514;19.056;2022-09-30T07:36:16;3.65;;;1.27;;
50858;SDS011;36826;47.514;19.056;2022-09-30T07:38:43;2.53;;;1.35;;
50858;SDS011;36826;47.514;19.056;2022-09-30T07:41:11;4.03;;;1.60;;
50858;SDS011;36826;47.514;19.056;2022-09-30T07:46:08;5.07;;;1.35;;
50858;SDS011;36826;47.514;19.056;2022-09-30T07:48:37;2.75;;;1.42;;
50858;SDS011;36826;47.514;19.056;2022-09-30T07:51:10;2.92;;;1.65;;
50858;SDS011;36826;47.514;19.056;2022-09-30T07:53:41;2.88;;;1.70;;
50858;SDS011;36826;47.514;19.056;2022-09-30T07:56:09;2.35;;;1.10;;
50858;SDS011;36826;47.514;19.056;2022-09-30T07:58:35;4.32;;;1.30;;
50858;SDS011;36826;47.514;19.056;2022-09-30T08:01:01;3.55;;;1.10;;
50858;SDS011;36826;47.514;19.056;2022-09-30T08:03:27;4.70;;;1.55;;
50858;SDS011;36826;47.514;19.056;2022-09-30T08:05:53;3.47;;;1.10;;
50858;SDS011;36826;47.514;19.056;2022-09-30T08:08:19;3.90;;;1.55;;
50858;SDS011;36826;47.514;19.056;2022-09-30T08:10:44;2.33;;;1.00;;
50858;SDS011;36826;47.514;19.056;2022-09-30T08:13:10;2.20;;;0.90;;
50858;SDS011;36826;47.514;19.056;2022-09-30T08:15:40;2.42;;;1.25;;
50858;SDS011;36826;47.514;19.056;2022-09-30T08:18:06;6.38;;;1.50;;
50858;SDS011;36826;47.514;19.056;2022-09-30T08:20:31;2.85;;;1.17;;
50858;SDS011;36826;47.514;19.056;2022-09-30T08:22:57;3.58;;;1.30;;
50858;SDS011;36826;47.514;19.056;2022-09-30T08:25:23;4.25;;;1.33;;
50858;SDS011;36826;47.514;19.056;2022-09-30T08:27:49;3.72;;;1.45;;
50858;SDS011;36826;47.514;19.056;2022-09-30T08:30:15;2.47;;;1.33;;
50858;SDS011;36826;47.514;19.056;2022-09-30T08:32:40;3.13;;;1.20;;
50858;SDS011;36826;47.514;19.056;2022-09-30T08:35:06;5.18;;;1.20;;
50858;SDS011;36826;47.514;19.056;2022-09-30T08:37:32;3.95;;;1.20;;
50858;SDS011;36826;47.514;19.056;2022-09-30T08:39:57;3.63;;;1.45;;
50858;SDS011;36826;47.514;19.056;2022-09-30T08:42:29;4.15;;;1.50;;
50858;SDS011;36826;47.514;19.056;2022-09-30T08:45:12;3.63;;;1.50;;
50858;SDS011;36826;47.514;19.056;2022-09-30T08:53:44;2.03;;;1.30;;
50858;SDS011;36826;47.514;19.056;2022-09-30T08:56:15;3.55;;;1.20;;
50858;SDS011;36826;47.514;19.056;2022-09-30T08:58:47;4.68;;;1.75;;
50858;SDS011;36826;47.514;19.056;2022-09-30T09:03:44;3.10;;;1.48;;
50858;SDS011;36826;47.514;19.056;2022-09-30T09:08:51;3.92;;;1.40;;
50858;SDS011;36826;47.514;19.056;2022-09-30T09:19:37;3.97;;;1.75;;
50858;SDS011;36826;47.514;19.056;2022-09-30T09:22:11;4.70;;;1.45;;
50858;SDS011;36826;47.514;19.056;2022-09-30T09:27:18;2.58;;;1.55;;
50858;SDS011;36826;47.514;19.056;2022-09-30T09:30:03;2.30;;;1.10;;
50858;SDS011;36826;47.514;19.056;2022-09-30T09:32:31;3.60;;;1.35;;
50858;SDS011;36826;47.514;19.056;2022-09-30T09:41:12;2.67;;;1.20;;
50858;SDS011;36826;47.514;19.056;2022-09-30T09:54:39;3.13;;;1.35;;
50858;SDS011;36826;47.514;19.056;2022-09-30T09:57:08;2.13;;;1.05;;
50858;SDS011;36826;47.514;19.056;2022-09-30T09:59:35;2.70;;;1.00;;
50858;SDS011;36826;47.514;19.056;2022-09-30T10:02:22;3.88;;;1.20;;
50858;SDS011;36826;47.514;19.056;2022-09-30T10:04:55;3.20;;;1.48;;
50858;SDS011;36826;47.514;19.056;2022-09-30T10:07:27;2.45;;;1.25;;
50858;SDS011;36826;47.514;19.056;2022-09-30T10:10:08;2.97;;;1.30;;
50858;SDS011;36826;47.514;19.056;2022-09-30T10:12:39;3.60;;;1.30;;
50858;SDS011;36826;47.514;19.056;2022-09-30T10:15:18;4.50;;;1.60;;
50858;SDS011;36826;47.514;19.056;2022-09-30T10:17:48;2.50;;;1.50;;
50858;SDS011;36826;47.514;19.056;2022-09-30T10:20:27;3.33;;;1.33;;
50858;SDS011;36826;47.514;19.056;2022-09-30T10:23:38;3.72;;;1.20;;
50858;SDS011;36826;47.514;19.056;2022-09-30T10:25:56;5.95;;;1.50;;
50858;SDS011;36826;47.514;19.056;2022-09-30T10:28:25;2.90;;;1.60;;
50858;SDS011;36826;47.514;19.056;2022-09-30T10:41:27;4.95;;;1.60;;
50858;SDS011;36826;47.514;19.056;2022-09-30T10:43:59;3.70;;;1.70;;
50858;SDS011;36826;47.514;19.056;2022-09-30T10:46:28;4.03;;;1.50;;
50858;SDS011;36826;47.514;19.056;2022-09-30T10:48:59;6.13;;;1.65;;
50858;SDS011;36826;47.514;19.056;2022-09-30T10:51:52;4.53;;;1.50;;
50858;SDS011;36826;47.514;19.056;2022-09-30T10:57:15;4.93;;;1.50;;
50858;SDS011;36826;47.514;19.056;2022-09-30T10:59:46;2.97;;;1.60;;
50858;SDS011;36826;47.514;19.056;2022-09-30T11:05:23;3.88;;;1.92;;
50858;SDS011;36826;47.514;19.056;2022-09-30T11:10:44;2.78;;;1.50;;
50858;SDS011;36826;47.514;19.056;2022-09-30T11:27:03;2.50;;;1.33;;
50858;SDS011;36826;47.514;19.056;2022-09-30T11:30:01;4.22;;;1.60;;
50858;SDS011;36826;47.514;19.056;2022-09-30T11:32:39;3.03;;;1.40;;
50858;SDS011;36826;47.514;19.056;2022-09-30T11:43:51;3.60;;;1.55;;
50858;SDS011;36826;47.514;19.056;2022-09-30T11:46:28;3.38;;;1.77;;
50858;SDS011;36826;47.514;19.056;2022-09-30T11:49:27;4.57;;;1.80;;
50858;SDS011;36826;47.514;19.056;2022-09-30T11:58:03;3.05;;;1.42;;
50858;SDS011;36826;47.514;19.056;2022-09-30T12:00:33;3.20;;;1.52;;
50858;SDS011;36826;47.514;19.056;2022-09-30T12:10:54;6.07;;;1.90;;
50858;SDS011;36826;47.514;19.056;2022-09-30T12:13:37;9.90;;;1.95;;
50858;SDS011;36826;47.514;19.056;2022-09-30T12:16:14;7.28;;;1.63;;
50858;SDS011;36826;47.514;19.056;2022-09-30T12:18:56;7.57;;;2.10;;
50858;SDS011;36826;47.514;19.056;2022-09-30T12:21:35;3.85;;;1.60;;
50858;SDS011;36826;47.514;19.056;2022-09-30T12:26:55;6.55;;;1.70;;
50858;SDS011;36826;47.514;19.056;2022-09-30T12:37:56;7.63;;;1.98;;
50858;SDS011;36826;47.514;19.056;2022-09-30T12:40:49;9.45;;;2.20;;
50858;SDS011;36826;47.514;19.056;2022-09-30T12:47:08;10.65;;;1.65;;
50858;SDS011;36826;47.514;19.056;2022-09-30T12:49:14;3.50;;;1.30;;
50858;SDS011;36826;47.514;19.056;2022-09-30T12:51:44;5.13;;;1.08;;
50858;SDS011;36826;47.514;19.056;2022-09-30T12:54:25;5.93;;;1.20;;
50858;SDS011;36826;47.514;19.056;2022-09-30T12:56:55;2.20;;;1.00;;
50858;SDS011;36826;47.514;19.056;2022-09-30T12:59:47;3.40;;;0.95;;
50858;SDS011;36826;47.514;19.056;2022-09-30T13:02:53;6.28;;;1.30;;
50858;SDS011;36826;47.514;19.056;2022-09-30T13:05:32;5.88;;;1.25;;
50858;SDS011;36826;47.514;19.056;2022-09-30T13:08:08;4.70;;;1.40;;
50858;SDS011;36826;47.514;19.056;2022-09-30T13:23:41;3.05;;;1.60;;
50858;SDS011;36826;47.514;19.056;2022-09-30T13:28:52;4.32;;;2.25;;
50858;SDS011;36826;47.514;19.056;2022-09-30T13:31:22;3.67;;;2.00;;
50858;SDS011;36826;47.514;19.056;2022-09-30T13:39:58;6.20;;;2.15;;
50858;SDS011;36826;47.514;19.056;2022-09-30T13:52:56;7.55;;;2.63;;
50858;SDS011;36826;47.514;19.056;2022-09-30T13:55:32;6.50;;;2.67;;
50858;SDS011;36826;47.514;19.056;2022-09-30T13:58:05;5.28;;;2.13;;
50858;SDS011;36826;47.514;19.056;2022-09-30T14:09:36;3.57;;;2.23;;
50858;SDS011;36826;47.514;19.056;2022-09-30T14:18:58;4.43;;;2.13;;
50858;SDS011;36826;47.514;19.056;2022-09-30T14:21:34;5.40;;;2.22;;
50858;SDS011;36826;47.514;19.056;2022-09-30T14:24:13;9.52;;;2.38;;
50858;SDS011;36826;47.514;19.056;2022-09-30T14:31:56;7.75;;;2.30;;
50858;SDS011;36826;47.514;19.056;2022-09-30T14:34:23;6.28;;;2.30;;
50858;SDS011;36826;47.514;19.056;2022-09-30T14:36:51;7.95;;;2.10;;
50858;SDS011;36826;47.514;19.056;2022-09-30T14:39:25;5.82;;;2.03;;
50858;SDS011;36826;47.514;19.056;2022-09-30T14:41:57;5.38;;;2.10;;
50858;SDS011;36826;47.514;19.056;2022-09-30T14:44:26;4.50;;;1.60;;
50858;SDS011;36826;47.514;19.056;2022-09-30T14:46:57;8.90;;;2.20;;
50858;SDS011;36826;47.514;19.056;2022-09-30T14:49:26;5.38;;;1.77;;
50858;SDS011;36826;47.514;19.056;2022-09-30T14:51:58;5.40;;;1.60;;
50858;SDS011;36826;47.514;19.056;2022-09-30T14:54:27;5.57;;;2.00;;
50858;SDS011;36826;47.514;19.056;2022-09-30T14:56:54;3.60;;;1.80;;
50858;SDS011;36826;47.514;19.056;2022-09-30T15:01:51;5.35;;;1.65;;
50858;SDS011;36826;47.514;19.056;2022-09-30T15:04:37;4.97;;;1.70;;
50858;SDS011;36826;47.514;19.056;2022-09-30T15:07:10;4.53;;;2.00;;
50858;SDS011;36826;47.514;19.056;2022-09-30T15:09:37;6.38;;;1.73;;
50858;SDS011;36826;47.514;19.056;2022-09-30T15:12:27;5.45;;;2.00;;
50858;SDS011;36826;47.514;19.056;2022-09-30T15:14:59;10.18;;;1.85;;
50858;SDS011;36826;47.514;19.056;2022-09-30T15:19:51;2.80;;;1.60;;
50858;SDS011;36826;47.514;19.056;2022-09-30T15:22:17;4.45;;;1.70;;
50858;SDS011;36826;47.514;19.056;2022-09-30T15:24:44;5.53;;;1.80;;
50858;SDS011;36826;47.514;19.056;2022-09-30T15:27:21;6.70;;;1.60;;
50858;SDS011;36826;47.514;19.056;2022-09-30T15:32:46;5.63;;;1.65;;
50858;SDS011;36826;47.514;19.056;2022-09-30T15:35:17;8.98;;;1.75;;
50858;SDS011;36826;47.514;19.056;2022-09-30T15:37:48;4.75;;;1.25;;
50858;SDS011;36826;47.514;19.056;2022-09-30T15:40:17;5.13;;;1.55;;
50858;SDS011;36826;47.514;19.056;2022-09-30T15:45:32;4.45;;;1.50;;
50858;SDS011;36826;47.514;19.056;2022-09-30T15:48:00;4.30;;;1.30;;
50858;SDS011;36826;47.514;19.056;2022-09-30T15:50:36;7.78;;;1.67;;
50858;SDS011;36826;47.514;19.056;2022-09-30T15:53:27;9.20;;;1.95;;
50858;SDS011;36826;47.514;19.056;2022-09-30T15:55:58;6.07;;;1.60;;
50858;SDS011;36826;47.514;19.056;2022-09-30T15:58:40;5.53;;;1.70;;
50858;SDS011;36826;47.514;19.056;2022-09-30T16:01:38;5.85;;;2.17;;
50858;SDS011;36826;47.514;19.056;2022-09-30T16:04:10;4.25;;;1.30;;
50858;SDS011;36826;47.514;19.056;2022-09-30T16:06:50;5.00;;;1.90;;
50858;SDS011;36826;47.514;19.056;2022-09-30T16:12:13;9.27;;;2.33;;
50858;SDS011;36826;47.514;19.056;2022-09-30T16:25:11;7.18;;;2.00;;
50858;SDS011;36826;47.514;19.056;2022-09-30T16:27:42;6.75;;;2.33;;
50858;SDS011;36826;47.514;19.056;2022-09-30T16:30:15;3.92;;;2.03;;
50858;SDS011;36826;47.514;19.056;2022-09-30T16:32:43;7.07;;;2.13;;
50858;SDS011;36826;47.514;19.056;2022-09-30T16:35:17;4.95;;;2.55;;
50858;SDS011;36826;47.514;19.056;2022-09-30T16:37:45;8.05;;;2.80;;
50858;SDS011;36826;47.514;19.056;2022-09-30T16:40:16;5.70;;;2.23;;
50858;SDS011;36826;47.514;19.056;2022-09-30T16:42:44;6.22;;;2.58;;
50858;SDS011;36826;47.514;19.056;2022-09-30T16:45:10;4.68;;;2.40;;
50858;SDS011;36826;47.514;19.056;2022-09-30T16:47:38;6.22;;;3.03;;
50858;SDS011;36826;47.514;19.056;2022-09-30T16:50:53;6.22;;;2.83;;
50858;SDS011;36826;47.514;19.056;2022-09-30T16:53:00;6.65;;;3.03;;
50858;SDS011;36826;47.514;19.056;2022-09-30T16:55:26;7.43;;;3.20;;
50858;SDS011;36826;47.514;19.056;2022-09-30T16:57:53;6.53;;;3.20;;
50858;SDS011;36826;47.514;19.056;2022-09-30T17:00:21;4.70;;;2.72;;
50858;SDS011;36826;47.514;19.056;2022-09-30T17:02:47;5.45;;;2.92;;
50858;SDS011;36826;47.514;19.056;2022-09-30T17:05:17;5.57;;;3.10;;
50858;SDS011;36826;47.514;19.056;2022-09-30T17:07:45;5.28;;;3.13;;
50858;SDS011;36826;47.514;19.056;2022-09-30T17:10:15;7.07;;;3.10;;
50858;SDS011;36826;47.514;19.056;2022-09-30T17:12:43;4.53;;;2.83;;
50858;SDS011;36826;47.514;19.056;2022-09-30T17:15:08;5.93;;;2.63;;
50858;SDS011;36826;47.514;19.056;2022-09-30T17:17:35;6.40;;;2.85;;
50858;SDS011;36826;47.514;19.056;2022-09-30T17:20:00;7.03;;;3.15;;
50858;SDS011;36826;47.514;19.056;2022-09-30T17:22:26;4.90;;;2.80;;
50858;SDS011;36826;47.514;19.056;2022-09-30T17:24:51;5.68;;;3.10;;
50858;SDS011;36826;47.514;19.056;2022-09-30T17:27:16;5.35;;;3.25;;
50858;SDS011;36826;47.514;19.056;2022-09-30T17:29:42;6.65;;;3.40;;
50858;SDS011;36826;47.514;19.056;2022-09-30T17:32:07;4.57;;;2.67;;
50858;SDS011;36826;47.514;19.056;2022-09-30T17:34:33;4.57;;;3.10;;
50858;SDS011;36826;47.514;19.056;2022-09-30T17:36:58;4.50;;;2.95;;
50858;SDS011;36826;47.514;19.056;2022-09-30T17:39:26;5.80;;;3.10;;
50858;SDS011;36826;47.514;19.056;2022-09-30T17:41:52;6.60;;;3.45;;
50858;SDS011;36826;47.514;19.056;2022-09-30T17:44:36;5.18;;;2.83;;
50858;SDS011;36826;47.514;19.056;2022-09-30T17:47:03;6.45;;;3.15;;
50858;SDS011;36826;47.514;19.056;2022-09-30T17:49:29;3.63;;;2.83;;
50858;SDS011;36826;47.514;19.056;2022-09-30T17:51:56;6.78;;;3.47;;
50858;SDS011;36826;47.514;19.056;2022-09-30T17:54:23;4.93;;;3.30;;
50858;SDS011;36826;47.514;19.056;2022-09-30T17:56:48;5.70;;;3.35;;
50858;SDS011;36826;47.514;19.056;2022-09-30T17:59:13;6.10;;;3.20;;
50858;SDS011;36826;47.514;19.056;2022-09-30T18:01:39;7.22;;;3.22;;
50858;SDS011;36826;47.514;19.056;2022-09-30T18:04:04;5.07;;;3.30;;
50858;SDS011;36826;47.514;19.056;2022-09-30T18:06:30;6.30;;;3.47;;
50858;SDS011;36826;47.514;19.056;2022-09-30T18:08:56;7.63;;;3.80;;
50858;SDS011;36826;47.514;19.056;2022-09-30T18:11:23;11.70;;;3.72;;
50858;SDS011;36826;47.514;19.056;2022-09-30T18:13:51;7.72;;;3.88;;
50858;SDS011;36826;47.514;19.056;2022-09-30T18:16:22;7.53;;;3.92;;
50858;SDS011;36826;47.514;19.056;2022-09-30T18:18:48;7.70;;;3.50;;
50858;SDS011;36826;47.514;19.056;2022-09-30T18:21:14;11.13;;;3.58;;
50858;SDS011;36826;47.514;19.056;2022-09-30T18:23:39;7.75;;;3.90;;
50858;SDS011;36826;47.514;19.056;2022-09-30T18:26:05;9.80;;;4.00;;
50858;SDS011;36826;47.514;19.056;2022-09-30T18:28:31;8.95;;;3.63;;
50858;SDS011;36826;47.514;19.056;2022-09-30T18:31:02;9.10;;;4.13;;
50858;SDS011;36826;47.514;19.056;2022-09-30T18:33:29;8.98;;;3.60;;
50858;SDS011;36826;47.514;19.056;2022-09-30T18:35:54;7.90;;;3.10;;
50858;SDS011;36826;47.514;19.056;2022-09-30T18:38:21;7.10;;;3.10;;
50858;SDS011;36826;47.514;19.056;2022-09-30T18:40:47;6.55;;;3.35;;
50858;SDS011;36826;47.514;19.056;2022-09-30T18:43:13;8.90;;;3.42;;
50858;SDS011;36826;47.514;19.056;2022-09-30T18:45:39;7.53;;;3.85;;
50858;SDS011;36826;47.514;19.056;2022-09-30T18:48:07;6.82;;;3.40;;
50858;SDS011;36826;47.514;19.056;2022-09-30T18:50:33;8.77;;;3.58;;
50858;SDS011;36826;47.514;19.056;2022-09-30T18:52:59;12.25;;;3.20;;
50858;SDS011;36826;47.514;19.056;2022-09-30T18:55:32;5.20;;;3.30;;
50858;SDS011;36826;47.514;19.056;2022-09-30T18:57:59;7.15;;;3.58;;